Time;durP1;ratioP1;P1;durP2;ratioP2;P2;SDS_P1;SDS_P2;PMS_P1;PMS_P2;Temp;Humidity;BMP_temperature;BMP_pressure;BME280_temperature;BME280_humidity;BME280_pressure;Samples;Min_cycle;Max_cycle;Signal;HPM_P1;HPM_P2
2022/12/09 00:00:19;;;;;;;0.50;0.30;;;5.20;1.00;;;;;;6067379;23;20411;-77
2022/12/09 00:02:47;;;;;;;0.50;0.10;;;5.20;1.00;;;;;;6065282;23;20463;-76
2022/12/09 00:05:15;;;;;;;0.50;0.10;;;5.20;1.00;;;;;;6068125;23;20533;-75
2022/12/09 00:07:44;;;;;;;0.50;0.10;;;5.20;1.00;;;;;;6067847;23;20443;-75
2022/12/09 00:10:12;;;;;;;0.50;0.10;;;5.20;1.00;;;;;;6065714;23;20483;-76
2022/12/09 00:12:40;;;;;;;0.50;0.10;;;5.20;1.00;;;;;;6066775;23;20908;-79
2022/12/09 00:15:10;;;;;;;0.50;0.10;;;5.20;1.00;;;;;;6067389;23;20428;-75
2022/12/09 00:17:37;;;;;;;0.50;0.10;;;5.20;1.00;;;;;;6065264;23;20404;-74
2022/12/09 00:20:07;;;;;;;0.87;0.87;;;5.20;1.00;;;;;;6068618;23;20411;-73
2022/12/09 00:22:35;;;;;;;0.50;0.10;;;5.20;1.00;;;;;;6068274;23;20976;-76
2022/12/09 00:25:03;;;;;;;0.50;0.10;;;5.20;1.00;;;;;;6068045;23;20434;-74
2022/12/09 00:27:31;;;;;;;0.50;0.10;;;5.20;1.00;;;;;;6068050;23;20439;-75
2022/12/09 00:29:59;;;;;;;0.50;0.10;;;5.20;1.00;;;;;;6067860;23;20912;-74
2022/12/09 00:32:29;;;;;;;0.50;0.10;;;5.20;1.00;;;;;;6067925;23;20413;-75
2022/12/09 00:34:56;;;;;;;0.50;0.10;;;6.40;1.00;;;;;;6067919;23;20451;-76
2022/12/09 00:37:24;;;;;;;0.50;0.10;;;5.20;1.00;;;;;;6068525;23;20923;-76
2022/12/09 00:39:52;;;;;;;0.50;0.10;;;5.30;1.00;;;;;;6067854;23;20442;-76
2022/12/09 00:42:20;;;;;;;0.50;0.10;;;5.20;1.00;;;;;;6067584;23;20412;-74
2022/12/09 00:44:48;;;;;;;0.50;0.10;;;5.20;1.00;;;;;;6068270;23;20431;-74
2022/12/09 00:47:16;;;;;;;0.50;0.10;;;5.20;1.00;;;;;;6067826;23;20486;-74
2022/12/09 00:49:45;;;;;;;0.50;0.10;;;5.20;1.00;;;;;;6068600;23;20939;-75
2022/12/09 00:52:13;;;;;;;0.50;0.10;;;5.20;1.00;;;;;;6070326;23;21152;-75
2022/12/09 00:54:42;;;;;;;0.50;0.10;;;5.20;1.00;;;;;;6069652;23;20434;-76
2022/12/09 00:57:10;;;;;;;0.50;0.10;;;5.30;1.00;;;;;;6068682;23;20446;-75
2022/12/09 00:59:38;;;;;;;0.50;0.10;;;5.20;1.00;;;;;;6067906;23;20415;-75
2022/12/09 05:01:22;;;;;;;0.50;0.10;;;4.80;1.00;;;;;;6011381;23;20511;-76
2022/12/09 05:03:59;;;;;;;0.60;0.50;;;4.80;1.00;;;;;;6087475;23;20395;-76
2022/12/09 05:06:27;;;;;;;0.60;0.30;;;4.70;1.00;;;;;;6090394;23;20415;-77
2022/12/09 05:08:56;;;;;;;0.50;0.10;;;4.70;1.00;;;;;;6090504;23;20424;-77
2022/12/09 05:11:25;;;;;;;0.50;0.20;;;4.70;1.00;;;;;;6089822;23;20431;-77
2022/12/09 05:13:54;;;;;;;0.50;0.10;;;4.70;1.00;;;;;;6088415;23;20448;-77
2022/12/09 05:16:24;;;;;;;0.50;0.10;;;;;;;;;;6070872;23;20482;-75
2022/12/09 05:18:52;;;;;;;0.50;0.10;;;4.70;1.00;;;;;;6069129;23;20423;-75
2022/12/09 05:21:21;;;;;;;0.67;0.60;;;4.60;1.00;;;;;;6068882;23;20411;-75
2022/12/09 05:23:49;;;;;;;2.30;2.20;;;4.60;1.00;;;;;;6068365;23;20412;-76
2022/12/09 05:26:19;;;;;;;0.50;0.20;;;4.60;1.00;;;;;;6070346;23;20441;-77
2022/12/09 05:28:48;;;;;;;0.50;0.10;;;4.60;1.00;;;;;;6070682;23;20786;-76
2022/12/09 05:31:19;;;;;;;0.50;0.10;;;4.60;1.00;;;;;;6069176;23;20408;-75
2022/12/09 05:33:50;;;;;;;0.50;0.10;;;4.70;1.00;;;;;;6067786;23;20395;-76
2022/12/09 05:36:21;;;;;;;0.50;0.10;;;4.60;1.00;;;;;;6067819;23;20432;-75
2022/12/09 05:38:50;;;;;;;0.50;0.20;;;4.60;1.00;;;;;;6066904;23;20411;-76
2022/12/09 05:41:18;;;;;;;0.50;0.10;;;4.60;1.00;;;;;;6067912;23;20758;-75
2022/12/09 05:43:46;;;;;;;1.10;1.10;;;4.60;1.00;;;;;;6067227;23;20458;-77
2022/12/09 05:46:15;;;;;;;0.50;0.10;;;4.70;1.00;;;;;;6067774;23;20427;-76
2022/12/09 05:48:43;;;;;;;1.83;1.60;;;4.70;1.00;;;;;;6067764;23;20443;-75
2022/12/09 05:51:16;;;;;;;0.50;0.10;;;4.70;1.00;;;;;;6068026;23;20734;-76
2022/12/09 05:53:44;;;;;;;1.10;1.00;;;4.70;1.00;;;;;;6067382;23;20418;-78
2022/12/09 05:56:15;;;;;;;0.60;0.40;;;4.70;1.00;;;;;;6067651;23;20428;-75
2022/12/09 05:58:43;;;;;;;3.80;1.30;;;4.60;1.00;;;;;;6067852;23;20440;-74
2022/12/09 06:01:12;;;;;;;0.50;0.10;;;4.60;1.00;;;;;;6066883;23;20415;-74
2022/12/09 06:03:40;;;;;;;0.50;0.10;;;4.00;1.00;;;;;;6067360;23;20429;-76
2022/12/09 06:06:10;;;;;;;0.50;0.10;;;4.60;1.00;;;;;;6067823;23;20434;-78
2022/12/09 06:08:41;;;;;;;0.50;0.10;;;4.60;1.00;;;;;;6068068;23;20443;-74
2022/12/09 06:11:12;;;;;;;0.50;0.10;;;4.60;1.00;;;;;;6068032;23;20399;-77
2022/12/09 06:13:40;;;;;;;2.63;2.53;;;4.60;1.00;;;;;;6068642;23;20410;-75
2022/12/09 06:16:09;;;;;;;1.13;1.13;;;4.60;1.00;;;;;;6067376;23;20747;-75
2022/12/09 06:18:38;;;;;;;8.23;3.90;;;4.60;1.00;;;;;;6067780;23;20777;-76
2022/12/09 06:21:07;;;;;;;0.50;0.20;;;4.50;1.00;;;;;;6067905;23;20480;-75
2022/12/09 06:23:37;;;;;;;0.50;0.10;;;4.60;1.00;;;;;;6066387;23;20495;-79
2022/12/09 06:26:07;;;;;;;0.50;0.10;;;4.50;1.00;;;;;;6066747;23;20439;-77
2022/12/09 06:28:37;;;;;;;1.17;1.07;;;4.50;1.00;;;;;;6067269;23;20448;-75
2022/12/09 06:31:05;;;;;;;0.50;0.10;;;4.50;1.00;;;;;;6066588;23;20419;-75
2022/12/09 06:33:33;;;;;;;0.50;0.10;;;4.50;1.00;;;;;;6066503;23;20996;-75
2022/12/09 06:36:21;;;;;;;1.77;0.80;;;4.50;1.00;;;;;;6066033;23;20427;-74
2022/12/09 06:38:49;;;;;;;0.50;0.20;;;4.40;1.00;;;;;;6066875;23;20404;-74
2022/12/09 06:41:18;;;;;;;0.50;0.10;;;4.30;1.00;;;;;;6067668;23;20408;-74
2022/12/09 06:43:46;;;;;;;0.60;0.40;;;4.30;1.00;;;;;;6072021;23;20412;-74
2022/12/09 06:46:17;;;;;;;0.50;0.10;;;4.40;1.00;;;;;;6069078;23;20459;-75
2022/12/09 06:48:46;;;;;;;0.50;0.10;;;4.40;1.00;;;;;;6067831;23;20439;-75
2022/12/09 06:51:15;;;;;;;0.70;0.40;;;4.40;1.00;;;;;;6075036;23;20459;-75
2022/12/09 06:53:44;;;;;;;0.50;0.10;;;4.40;1.00;;;;;;6066372;23;20693;-75
2022/12/09 06:56:13;;;;;;;4.00;2.17;;;;;;;;;;6066846;23;20805;-75
2022/12/09 06:58:44;;;;;;;0.60;0.30;;;4.40;1.00;;;;;;6064549;23;20905;-76
2022/12/09 07:01:15;;;;;;;0.50;0.10;;;4.40;1.00;;;;;;6065568;23;20392;-77
2022/12/09 07:03:45;;;;;;;0.60;0.60;;;4.30;1.00;;;;;;6065662;23;20407;-76
2022/12/09 07:06:22;;;;;;;0.50;0.10;;;4.20;1.00;;;;;;6066636;23;20435;-76
2022/12/09 07:08:51;;;;;;;0.50;0.10;;;4.20;1.00;;;;;;6065735;23;20423;-77
2022/12/09 07:11:19;;;;;;;3.90;3.70;;;3.70;1.00;;;;;;6066832;23;20429;-76
2022/12/09 07:13:49;;;;;;;0.50;0.10;;;4.30;1.00;;;;;;6065055;23;20416;-76
2022/12/09 07:16:17;;;;;;;0.60;0.43;;;4.40;1.00;;;;;;6065760;23;20439;-74
2022/12/09 07:18:46;;;;;;;0.50;0.23;;;4.40;1.00;;;;;;6067137;23;20739;-76
2022/12/09 07:21:16;;;;;;;0.50;0.10;;;4.40;1.00;;;;;;6065788;23;20444;-75
2022/12/09 07:23:44;;;;;;;0.90;0.67;;;5.10;1.00;;;;;;6067815;23;20408;-75
2022/12/09 07:26:13;;;;;;;0.50;0.10;;;4.40;1.00;;;;;;6070314;23;20435;-73
2022/12/09 07:28:42;;;;;;;0.50;0.10;;;4.40;1.00;;;;;;6069390;23;20415;-74
2022/12/09 07:31:18;;;;;;;0.50;0.20;;;4.40;1.00;;;;;;6068284;23;20412;-70
2022/12/09 07:33:48;;;;;;;3.27;2.00;;;4.50;1.00;;;;;;6067174;23;20388;-74
2022/12/09 07:36:16;;;;;;;2.40;2.30;;;4.40;1.00;;;;;;6067398;23;20920;-75
2022/12/09 07:38:48;;;;;;;0.50;0.10;;;4.40;1.00;;;;;;6066997;23;20407;-74
2022/12/09 07:41:17;;;;;;;0.53;0.30;;;4.40;1.00;;;;;;6067409;23;20411;-74
2022/12/09 07:43:47;;;;;;;0.50;0.10;;;4.40;1.00;;;;;;6066540;23;20436;-77
2022/12/09 07:46:19;;;;;;;0.50;0.10;;;4.40;1.00;;;;;;6066884;23;20515;-75
2022/12/09 07:48:48;;;;;;;0.50;0.10;;;4.40;1.00;;;;;;6067553;23;20427;-75
2022/12/09 07:51:17;;;;;;;0.50;0.10;;;4.40;1.00;;;;;;6067271;23;20461;-74
2022/12/09 07:53:46;;;;;;;0.50;0.17;;;4.40;1.00;;;;;;6066885;23;20411;-76
2022/12/09 07:56:16;;;;;;;0.50;0.13;;;4.40;1.00;;;;;;6066980;23;20515;-76
2022/12/09 07:58:46;;;;;;;0.50;0.10;;;4.40;1.00;;;;;;6066683;23;20467;-75
2022/12/09 08:01:16;;;;;;;0.60;0.17;;;4.40;1.00;;;;;;6067873;23;20406;-76
2022/12/09 08:03:47;;;;;;;0.63;0.30;;;4.30;1.00;;;;;;6067111;23;20458;-76
2022/12/09 08:06:17;;;;;;;0.80;0.53;;;4.30;1.00;;;;;;6067443;23;20424;-76
2022/12/09 08:08:46;;;;;;;0.50;0.20;;;4.20;1.00;;;;;;6067196;23;20392;-76
2022/12/09 08:11:19;;;;;;;0.60;0.40;;;4.20;1.00;;;;;;6067065;23;20447;-75
2022/12/09 08:13:47;;;;;;;1.30;0.77;;;4.20;1.00;;;;;;6066995;23;20474;-76
2022/12/09 08:16:18;;;;;;;1.13;0.80;;;4.10;1.00;;;;;;6067101;23;20459;-74
2022/12/09 08:18:48;;;;;;;0.60;0.40;;;4.20;1.00;;;;;;6068005;23;20412;-75
2022/12/09 08:21:18;;;;;;;0.73;0.73;;;4.10;1.00;;;;;;6068265;23;20384;-76
2022/12/09 08:23:47;;;;;;;4.33;4.03;;;4.10;1.00;;;;;;6069129;23;20415;-76
2022/12/09 08:26:17;;;;;;;0.70;0.27;;;4.00;1.00;;;;;;6069371;23;20518;-75
2022/12/09 08:28:46;;;;;;;0.50;0.10;;;4.00;1.00;;;;;;6069763;23;20408;-76
2022/12/09 08:31:17;;;;;;;0.70;0.50;;;3.90;1.00;;;;;;6069169;23;20465;-75
2022/12/09 08:33:47;;;;;;;0.93;0.70;;;3.90;1.00;;;;;;6069257;23;20411;-75
2022/12/09 08:36:17;;;;;;;0.97;0.40;;;3.80;1.00;;;;;;6071732;23;20927;-75
2022/12/09 08:38:46;;;;;;;0.50;0.10;;;3.80;1.00;;;;;;6070497;23;20821;-74
2022/12/09 08:41:17;;;;;;;0.93;0.93;;;3.80;1.00;;;;;;6069684;23;20407;-74
2022/12/09 08:43:46;;;;;;;10.97;1.07;;;3.80;1.00;;;;;;6069661;23;20475;-75
2022/12/09 08:46:15;;;;;;;0.50;0.10;;;3.80;1.00;;;;;;6069035;23;20434;-75
2022/12/09 08:48:43;;;;;;;0.80;0.27;;;3.80;1.00;;;;;;6068976;23;20495;-74
2022/12/09 08:51:13;;;;;;;0.50;0.10;;;3.60;1.00;;;;;;6069775;23;20447;-77
2022/12/09 08:53:42;;;;;;;1.30;1.20;;;;;;;;;;6068340;23;20463;-75
2022/12/09 08:56:12;;;;;;;1.53;0.57;;;3.80;1.00;;;;;;6068121;23;20471;-75
2022/12/09 08:58:41;;;;;;;0.50;0.20;;;3.80;1.00;;;;;;6068685;23;20435;-75
2022/12/09 09:01:15;;;;;;;0.60;0.30;;;3.80;1.00;;;;;;6069096;23;20403;-77
2022/12/09 09:03:43;;;;;;;0.50;0.10;;;3.80;1.00;;;;;;6068633;23;20503;-77
2022/12/09 09:06:13;;;;;;;0.50;0.20;;;3.80;1.00;;;;;;6069113;23;20463;-75
2022/12/09 09:08:42;;;;;;;1.40;1.30;;;3.80;1.00;;;;;;6068863;23;20392;-75
2022/12/09 09:11:12;;;;;;;0.70;0.67;;;3.80;1.00;;;;;;6068536;23;20475;-76
2022/12/09 09:13:42;;;;;;;1.20;1.03;;;3.80;1.00;;;;;;6066013;23;20885;-76
2022/12/09 09:16:13;;;;;;;0.50;0.30;;;3.80;1.00;;;;;;6067899;23;20498;-76
2022/12/09 09:18:42;;;;;;;4.50;1.20;;;3.80;1.00;;;;;;6068702;23;20408;-76
2022/12/09 09:21:14;;;;;;;0.50;0.20;;;3.80;1.00;;;;;;6068559;23;20410;-74
2022/12/09 09:23:43;;;;;;;0.50;0.10;;;3.80;1.00;;;;;;6068482;23;20416;-75
2022/12/09 09:26:12;;;;;;;0.63;0.63;;;3.80;1.00;;;;;;6069192;23;20431;-75
2022/12/09 09:28:41;;;;;;;2.23;2.13;;;3.80;1.00;;;;;;6068825;23;20411;-74
2022/12/09 09:31:14;;;;;;;2.83;1.40;;;3.80;1.00;;;;;;6068259;23;20447;-76
2022/12/09 09:33:42;;;;;;;0.90;0.67;;;3.80;1.00;;;;;;6068682;23;20854;-77
2022/12/09 09:36:15;;;;;;;0.60;0.60;;;3.80;1.00;;;;;;6068532;23;20423;-77
2022/12/09 09:38:43;;;;;;;1.67;1.40;;;3.80;1.00;;;;;;6068949;23;20392;-75
2022/12/09 09:41:20;;;;;;;0.50;0.30;;;3.80;1.00;;;;;;6068370;23;20494;-76
2022/12/09 09:43:48;;;;;;;1.23;0.40;;;3.80;1.00;;;;;;6068612;23;20467;-74
2022/12/09 09:46:22;;;;;;;0.80;0.43;;;3.90;1.00;;;;;;6068166;23;20432;-75
2022/12/09 09:48:51;;;;;;;5.37;1.53;;;3.90;1.00;;;;;;6067499;23;20399;-76
2022/12/09 09:51:21;;;;;;;0.50;0.20;;;3.90;1.00;;;;;;6066232;23;20444;-75
2022/12/09 09:53:51;;;;;;;0.50;0.10;;;3.90;1.00;;;;;;6066776;23;20408;-75
2022/12/09 09:56:28;;;;;;;0.57;0.37;;;4.00;1.00;;;;;;6068159;23;20435;-75
2022/12/09 09:59:07;;;;;;;0.50;0.10;;;4.00;1.00;;;;;;6068840;23;20477;-76
2022/12/09 10:01:37;;;;;;;0.50;0.10;;;3.90;1.00;;;;;;6068335;23;20725;-75
2022/12/09 10:04:13;;;;;;;0.60;0.50;;;4.00;1.00;;;;;;6068325;23;20408;-75
2022/12/09 10:06:49;;;;;;;2.00;1.80;;;4.10;1.00;;;;;;6068531;23;20439;-75
2022/12/09 10:09:22;;;;;;;0.50;0.10;;;4.10;1.00;;;;;;6068218;23;20411;-76
2022/12/09 10:11:57;;;;;;;0.50;0.10;;;4.20;1.00;;;;;;6067857;23;20741;-77
2022/12/09 10:14:41;;;;;;;0.50;0.10;;;4.20;1.00;;;;;;6068687;23;20846;-77
2022/12/09 10:17:21;;;;;;;0.50;0.10;;;4.30;1.00;;;;;;6067951;23;20956;-74
2022/12/09 10:19:53;;;;;;;0.77;0.77;;;4.40;1.00;;;;;;6068604;23;20829;-76
2022/12/09 10:22:26;;;;;;;0.50;0.10;;;4.40;1.00;;;;;;6069785;23;20384;-75
2022/12/09 10:24:56;;;;;;;1.70;1.60;;;4.40;1.00;;;;;;6068863;23;20451;-76
2022/12/09 10:27:30;;;;;;;0.50;0.30;;;4.50;1.00;;;;;;6071162;23;20508;-76
2022/12/09 10:30:01;;;;;;;0.50;0.10;;;4.50;1.00;;;;;;6072704;23;20464;-76
2022/12/09 10:32:32;;;;;;;0.50;0.10;;;4.50;1.00;;;;;;6071863;23;20440;-75
2022/12/09 10:35:02;;;;;;;1.27;0.50;;;4.50;1.00;;;;;;6073249;23;20389;-77
2022/12/09 10:37:36;;;;;;;0.60;0.50;;;4.60;1.00;;;;;;6071648;23;20431;-75
2022/12/09 10:40:19;;;;;;;0.50;0.10;;;4.60;1.00;;;;;;6069367;23;20392;-75
2022/12/09 10:45:43;;;;;;;0.50;0.10;;;4.60;1.00;;;;;;6068230;23;20726;-77
2022/12/09 10:48:33;;;;;;;0.50;0.10;;;;;;;;;;6067535;23;20408;-77
2022/12/09 10:51:03;;;;;;;0.50;0.10;;;4.60;1.00;;;;;;6067847;23;20444;-75
2022/12/09 10:53:35;;;;;;;0.60;0.60;;;4.60;1.00;;;;;;6068057;23;20392;-77
2022/12/09 10:56:04;;;;;;;0.50;0.10;;;4.60;1.00;;;;;;6067553;23;20439;-75
2022/12/09 10:58:32;;;;;;;0.50;0.10;;;4.60;1.00;;;;;;6067515;23;20408;-76
2022/12/09 11:01:04;;;;;;;2.77;2.67;;;4.60;1.00;;;;;;6067953;23;20475;-76
2022/12/09 11:03:35;;;;;;;0.50;0.10;;;4.70;1.00;;;;;;6068176;23;20412;-76
2022/12/09 11:06:16;;;;;;;0.50;0.10;;;4.70;1.00;;;;;;6067329;23;20598;-75
2022/12/09 11:08:51;;;;;;;1.73;0.90;;;4.70;1.00;;;;;;6067494;23;20414;-75
2022/12/09 11:11:22;;;;;;;0.50;0.10;;;4.70;1.00;;;;;;6066740;23;20444;-76
2022/12/09 11:13:52;;;;;;;0.50;0.10;;;4.70;1.00;;;;;;6067792;23;20395;-75
2022/12/09 11:16:27;;;;;;;0.50;0.20;;;4.70;1.00;;;;;;6064684;23;20435;-79
2022/12/09 11:18:55;;;;;;;0.50;0.10;;;4.70;1.00;;;;;;6074236;23;20926;-75
2022/12/09 11:21:32;;;;;;;0.50;0.10;;;4.70;1.00;;;;;;6071955;23;20461;-78
2022/12/09 11:24:06;;;;;;;1.17;1.07;;;4.60;1.00;;;;;;6072979;23;20400;-78
2022/12/09 11:26:37;;;;;;;0.50;0.10;;;4.60;1.00;;;;;;6071326;23;20666;-75
2022/12/09 11:29:15;;;;;;;0.60;0.53;;;4.60;1.00;;;;;;6070916;23;20430;-77
2022/12/09 11:31:47;;;;;;;0.50;0.20;;;4.60;1.00;;;;;;6072326;23;20523;-78
2022/12/09 11:34:22;;;;;;;0.50;0.10;;;4.60;1.00;;;;;;6071196;23;20822;-77
2022/12/09 11:36:53;;;;;;;0.50;0.10;;;4.60;1.00;;;;;;6078232;23;20438;-76
2022/12/09 11:39:28;;;;;;;0.50;0.40;;;4.60;1.00;;;;;;6078294;23;20399;-77
2022/12/09 11:42:16;;;;;;;1.23;0.73;;;4.60;1.00;;;;;;6070436;23;20414;-75
2022/12/09 11:44:55;;;;;;;0.50;0.20;;;4.50;1.00;;;;;;6071646;23;20455;-77
2022/12/09 11:47:30;;;;;;;1.57;0.43;;;4.40;1.00;;;;;;6072449;23;20767;-77
2022/12/09 11:50:17;;;;;;;0.50;0.10;;;4.40;1.00;;;;;;6071716;23;20474;-77
2022/12/09 11:52:45;;;;;;;0.50;0.10;;;4.30;1.00;;;;;;6070005;23;20443;-77
2022/12/09 11:55:18;;;;;;;0.50;0.10;;;4.30;1.00;;;;;;6072147;23;20407;-76
2022/12/09 11:57:51;;;;;;;2.00;1.90;;;4.40;1.00;;;;;;6070150;23;21131;-75
2022/12/09 12:00:22;;;;;;;3.20;2.90;;;4.40;1.00;;;;;;6072545;23;20775;-77
2022/12/09 12:03:00;;;;;;;2.00;1.13;;;4.50;1.00;;;;;;6072070;23;20752;-77
2022/12/09 12:05:35;;;;;;;0.90;0.60;;;4.50;1.00;;;;;;6071500;23;20412;-75
2022/12/09 12:08:13;;;;;;;0.50;0.20;;;4.50;1.00;;;;;;6070341;23;20419;-77
2022/12/09 12:10:47;;;;;;;0.50;0.10;;;4.50;1.00;;;;;;6071674;23;20438;-75
2022/12/09 12:13:20;;;;;;;4.93;1.53;;;4.50;1.00;;;;;;6071409;23;20443;-77
2022/12/09 12:15:53;;;;;;;0.90;0.60;;;4.60;1.00;;;;;;6071676;23;20415;-77
2022/12/09 12:18:23;;;;;;;0.50;0.20;;;4.60;1.00;;;;;;6073097;23;20455;-76
2022/12/09 12:21:14;;;;;;;0.50;0.10;;;4.60;1.00;;;;;;6076238;23;20420;-77
2022/12/09 12:24:00;;;;;;;1.43;1.33;;;;;;;;;;6079270;23;20414;-77
2022/12/09 12:26:37;;;;;;;0.50;0.10;;;4.60;1.00;;;;;;6080858;23;20435;-78
2022/12/09 12:29:33;;;;;;;0.63;0.63;;;4.60;1.00;;;;;;6090529;23;20404;-77
2022/12/09 12:32:26;;;;;;;0.80;0.50;;;4.70;1.00;;;;;;6084835;23;20444;-76
2022/12/09 12:35:17;;;;;;;0.50;0.10;;;4.80;1.00;;;;;;6074049;23;20404;-76
2022/12/09 12:37:58;;;;;;;5.90;2.17;;;4.80;1.00;;;;;;6072541;23;20512;-76
2022/12/09 12:40:36;;;;;;;0.97;0.70;;;4.80;1.00;;;;;;6073560;23;20411;-77
2022/12/09 12:46:41;;;;;;;0.50;0.30;;;4.70;1.00;;;;;;6073498;23;20420;-76
2022/12/09 12:49:26;;;;;;;0.57;0.43;;;4.80;1.00;;;;;;6071592;23;20419;-76
2022/12/09 12:52:05;;;;;;;1.73;1.63;;;4.80;1.00;;;;;;6070444;23;20457;-75
2022/12/09 12:54:55;;;;;;;0.87;0.60;;;4.80;1.00;;;;;;6073783;23;20380;-77
2022/12/09 12:57:33;;;;;;;0.50;0.10;;;4.80;1.00;;;;;;6073561;23;20422;-78
2022/12/09 13:00:12;;;;;;;0.50;0.10;;;4.80;1.00;;;;;;6073441;23;20487;-76
2022/12/09 13:02:48;;;;;;;5.23;2.30;;;4.70;1.00;;;;;;6052019;23;20396;-77
2022/12/09 13:05:31;;;;;;;0.50;0.10;;;4.70;1.00;;;;;;6076094;23;20439;-77
2022/12/09 13:08:06;;;;;;;0.80;0.57;;;4.70;1.00;;;;;;6071628;23;20439;-76
2022/12/09 13:10:38;;;;;;;0.50;0.20;;;4.70;1.00;;;;;;6071866;23;20410;-77
2022/12/09 13:13:16;;;;;;;2.20;0.83;;;4.80;1.00;;;;;;6072774;23;20474;-77
2022/12/09 13:15:58;;;;;;;1.50;1.40;;;4.80;1.00;;;;;;6074143;23;20430;-77
2022/12/09 13:18:49;;;;;;;0.50;0.20;;;4.70;1.00;;;;;;6072673;23;20411;-77
2022/12/09 13:21:18;;;;;;;2.17;2.00;;;4.70;1.00;;;;;;6075272;23;20408;-77
2022/12/09 13:23:58;;;;;;;3.53;1.80;;;4.70;1.00;;;;;;6071536;23;20411;-77
2022/12/09 13:26:39;;;;;;;0.50;0.20;;;4.60;1.00;;;;;;6071609;23;20432;-76
2022/12/09 13:29:19;;;;;;;1.73;1.37;;;4.60;1.00;;;;;;6072441;23;20392;-76
2022/12/09 13:31:56;;;;;;;0.50;0.20;;;4.50;1.00;;;;;;6072202;23;20419;-77
2022/12/09 13:34:36;;;;;;;1.03;1.00;;;4.60;1.00;;;;;;6075273;23;20429;-76
2022/12/09 13:37:04;;;;;;;0.50;0.10;;;4.70;1.00;;;;;;6077151;23;20429;-76
2022/12/09 13:39:56;;;;;;;0.50;0.10;;;4.70;1.00;;;;;;6076386;23;20419;-76
2022/12/09 13:42:55;;;;;;;0.50;0.10;;;4.70;1.00;;;;;;6076995;23;20408;-76
2022/12/09 13:45:33;;;;;;;0.50;0.10;;;4.70;1.00;;;;;;6075820;23;20426;-77
2022/12/09 13:48:06;;;;;;;0.50;0.10;;;4.80;1.00;;;;;;6079518;23;20446;-77
2022/12/09 13:50:54;;;;;;;0.50;0.10;;;4.80;1.00;;;;;;6074193;23;20444;-77
2022/12/09 13:53:26;;;;;;;0.60;0.57;;;4.80;1.00;;;;;;6076616;23;20522;-76
2022/12/09 13:56:01;;;;;;;0.50;0.23;;;4.80;1.00;;;;;;6077007;23;20420;-77
2022/12/09 13:58:44;;;;;;;0.50;0.10;;;4.80;1.00;;;;;;6077317;23;20403;-77
2022/12/09 14:01:21;;;;;;;2.43;0.40;;;4.80;1.00;;;;;;6073693;23;20949;-77
2022/12/09 14:04:01;;;;;;;0.50;0.10;;;4.80;1.00;;;;;;6074382;23;20443;-77
2022/12/09 14:06:32;;;;;;;0.50;0.10;;;4.80;1.00;;;;;;6071059;23;20420;-77
2022/12/09 14:09:04;;;;;;;0.50;0.10;;;4.80;1.00;;;;;;6070419;23;20467;-78
2022/12/09 14:11:47;;;;;;;0.80;0.70;;;4.70;1.00;;;;;;6070620;23;20429;-78
2022/12/09 14:14:52;;;;;;;0.63;0.63;;;4.70;1.00;;;;;;6069823;23;20500;-78
2022/12/09 14:17:59;;;;;;;0.50;0.10;;;4.80;1.00;;;;;;6069767;23;20777;-77
2022/12/09 14:20:38;;;;;;;0.50;0.20;;;4.80;1.00;;;;;;6079225;23;20395;-77
2022/12/09 14:23:15;;;;;;;0.50;0.10;;;4.80;1.00;;;;;;6079240;23;20431;-77
2022/12/09 14:26:02;;;;;;;0.50;0.10;;;;;;;;;;6079300;23;20427;-77
2022/12/09 14:28:58;;;;;;;1.47;0.87;;;4.80;1.00;;;;;;6077407;23;20459;-76
2022/12/09 14:31:46;;;;;;;0.50;0.10;;;;;;;;;;6076821;23;20388;-77
2022/12/09 14:34:34;;;;;;;0.50;0.10;;;4.70;1.00;;;;;;6080570;23;20471;-77
2022/12/09 14:37:27;;;;;;;1.83;0.80;;;4.60;1.00;;;;;;6080395;23;20458;-79
2022/12/09 14:40:01;;;;;;;1.97;0.90;;;4.60;1.00;;;;;;6063442;23;20420;-78
2022/12/09 14:42:42;;;;;;;0.50;0.10;;;4.60;1.00;;;;;;6074754;23;20403;-77
2022/12/09 14:45:24;;;;;;;3.07;1.53;;;4.50;1.00;;;;;;6074086;23;20822;-77
2022/12/09 14:47:52;;;;;;;0.50;0.10;;;4.50;1.00;;;;;;6072584;23;20434;-77
2022/12/09 14:50:23;;;;;;;1.43;0.87;;;4.50;1.00;;;;;;6074716;23;20475;-77
2022/12/09 14:53:04;;;;;;;0.50;0.10;;;4.50;1.00;;;;;;6077584;23;20439;-76
2022/12/09 14:55:39;;;;;;;0.50;0.10;;;4.40;1.00;;;;;;6075955;23;20408;-77
2022/12/09 14:58:17;;;;;;;1.77;1.17;;;4.40;1.00;;;;;;6071430;23;20506;-76
2022/12/09 15:00:46;;;;;;;0.50;0.10;;;4.30;1.00;;;;;;6070593;23;20474;-77
2022/12/09 15:03:18;;;;;;;0.50;0.10;;;;;;;;;;6070414;23;20718;-76
2022/12/09 15:06:16;;;;;;;0.50;0.10;;;4.20;1.00;;;;;;6071690;23;20408;-77
2022/12/09 15:08:46;;;;;;;0.50;0.13;;;4.10;1.00;;;;;;6072753;23;20493;-77
2022/12/09 15:11:17;;;;;;;0.50;0.20;;;4.10;1.00;;;;;;6080719;23;20426;-79
2022/12/09 15:13:47;;;;;;;0.60;0.30;;;4.10;1.00;;;;;;6089142;23;20451;-78
2022/12/09 15:16:19;;;;;;;0.50;0.10;;;4.00;1.00;;;;;;6083214;23;20919;-78
2022/12/09 15:18:48;;;;;;;1.17;0.40;;;4.00;1.00;;;;;;6072878;23;20412;-77
2022/12/09 15:21:28;;;;;;;0.50;0.10;;;3.90;1.00;;;;;;6071634;23;20455;-77
2022/12/09 15:23:58;;;;;;;0.50;0.20;;;3.80;1.00;;;;;;6071913;23;20407;-77
2022/12/09 15:26:28;;;;;;;1.00;0.90;;;3.70;1.00;;;;;;6070690;23;20416;-77
2022/12/09 15:28:58;;;;;;;0.50;0.20;;;3.70;1.00;;;;;;6072888;23;20419;-77
2022/12/09 15:31:31;;;;;;;1.07;0.40;;;3.60;1.00;;;;;;6072799;23;20799;-76
2022/12/09 15:34:07;;;;;;;1.90;1.80;;;3.50;1.00;;;;;;6072545;23;20443;-76
2022/12/09 15:36:42;;;;;;;1.33;1.23;;;3.50;1.00;;;;;;6073647;23;20462;-75
2022/12/09 15:39:18;;;;;;;0.50;0.10;;;3.40;1.00;;;;;;6072584;23;20426;-77
2022/12/09 15:42:09;;;;;;;3.27;1.60;;;3.40;1.00;;;;;;6072728;23;20408;-77
2022/12/09 15:45:13;;;;;;;4.00;2.37;;;3.30;1.00;;;;;;6074196;23;20416;-78
2022/12/09 15:47:44;;;;;;;2.10;1.40;;;3.30;1.00;;;;;;6077215;23;20426;-77
2022/12/09 15:50:17;;;;;;;0.90;0.60;;;;;;;;;;6073718;23;20407;-76
2022/12/09 15:52:50;;;;;;;0.50;0.10;;;3.20;1.00;;;;;;6072532;23;20916;-76
2022/12/09 15:55:31;;;;;;;0.50;0.10;;;3.20;1.00;;;;;;6070969;23;20446;-76
2022/12/09 15:58:03;;;;;;;0.50;0.10;;;3.20;1.00;;;;;;6070901;23;20777;-76
2022/12/09 16:00:34;;;;;;;0.50;0.10;;;3.20;1.00;;;;;;6074244;23;20385;-77
2022/12/09 16:03:05;;;;;;;0.60;0.37;;;3.10;1.00;;;;;;6075549;23;20480;-76
2022/12/09 16:05:34;;;;;;;0.50;0.20;;;;;;;;;;6074825;23;20467;-76
2022/12/09 16:08:10;;;;;;;0.50;0.20;;;3.10;1.00;;;;;;6074435;23;20438;-76
2022/12/09 16:10:48;;;;;;;0.50;0.10;;;3.10;1.00;;;;;;6071387;23;20415;-76
2022/12/09 16:13:20;;;;;;;0.60;0.40;;;3.10;1.00;;;;;;6069880;23;20441;-77
2022/12/09 16:15:54;;;;;;;4.83;1.70;;;3.00;1.00;;;;;;6070353;23;20419;-79
2022/12/09 16:18:25;;;;;;;0.50;0.30;;;;;;;;;;6070454;23;20538;-78
2022/12/09 16:21:22;;;;;;;0.50;0.30;;;3.10;1.00;;;;;;6070763;23;20412;-78
2022/12/09 16:24:00;;;;;;;0.50;0.10;;;;;;;;;;6070440;23;20396;-77
2022/12/09 16:26:31;;;;;;;0.97;0.83;;;3.10;1.00;;;;;;6070510;23;20443;-77
2022/12/09 16:29:07;;;;;;;2.30;1.70;;;3.10;1.00;;;;;;6069897;23;20698;-77
2022/12/09 16:31:38;;;;;;;0.60;0.40;;;3.10;1.00;;;;;;6069682;23;20419;-78
2022/12/09 16:34:19;;;;;;;0.50;0.20;;;3.20;1.00;;;;;;6070702;23;20755;-77
2022/12/09 16:36:54;;;;;;;0.80;0.63;;;3.20;1.00;;;;;;6070054;23;20435;-77
2022/12/09 16:39:42;;;;;;;0.50;0.20;;;3.20;1.00;;;;;;6069270;23;20415;-77
2022/12/09 16:42:42;;;;;;;12.17;11.20;;;;;;;;;;6070891;23;20412;-76
2022/12/09 16:45:24;;;;;;;0.50;0.10;;;;;;;;;;6071563;23;20408;-77
2022/12/09 16:47:54;;;;;;;0.60;0.50;;;;;;;;;;6072133;23;20459;-78
2022/12/09 16:50:27;;;;;;;0.80;0.80;;;3.20;1.00;;;;;;6072498;23;20411;-77
2022/12/09 16:53:06;;;;;;;1.87;0.90;;;;;;;;;;6071269;23;20510;-78
2022/12/09 16:55:55;;;;;;;0.50;0.10;;;;;;;;;;6053467;23;20462;-77
2022/12/09 16:58:25;;;;;;;0.50;0.10;;;;;;;;;;6072712;23;20467;-78
2022/12/09 17:00:54;;;;;;;0.97;0.97;;;3.10;1.00;;;;;;6073185;23;20406;-78
2022/12/09 17:03:31;;;;;;;0.50;0.10;;;3.10;1.00;;;;;;6075690;23;20412;-76
2022/12/09 17:06:00;;;;;;;0.50;0.30;;;3.10;1.00;;;;;;6080909;23;20896;-78
2022/12/09 17:08:30;;;;;;;0.50;0.20;;;3.10;1.00;;;;;;6078693;23;20408;-77
2022/12/09 17:11:08;;;;;;;0.50;0.20;;;3.10;1.00;;;;;;6075946;23;20410;-78
2022/12/09 17:13:37;;;;;;;0.73;0.53;;;3.10;1.00;;;;;;6077319;23;20406;-78
2022/12/09 17:16:08;;;;;;;0.50;0.10;;;3.10;1.00;;;;;;6076435;23;20410;-77
2022/12/09 17:18:37;;;;;;;0.50;0.10;;;;;;;;;;6075879;23;20455;-78
2022/12/09 17:21:08;;;;;;;0.50;0.10;;;3.10;1.00;;;;;;6076581;23;20964;-78
2022/12/09 17:23:37;;;;;;;0.50;0.10;;;3.10;1.00;;;;;;6073111;23;20388;-77
2022/12/09 17:26:09;;;;;;;0.50;0.10;;;3.10;1.00;;;;;;6076844;23;20900;-79
2022/12/09 17:28:38;;;;;;;0.50;0.20;;;3.10;1.00;;;;;;6074466;23;20420;-77
2022/12/09 17:31:08;;;;;;;0.50;0.20;;;3.20;1.00;;;;;;6080869;23;20408;-76
2022/12/09 17:33:36;;;;;;;0.50;0.10;;;3.20;1.00;;;;;;6076998;23;20404;-76
2022/12/09 17:36:04;;;;;;;0.50;0.10;;;3.10;1.00;;;;;;6077061;23;20983;-76
2022/12/09 17:38:32;;;;;;;0.50;0.20;;;3.20;1.00;;;;;;6075895;23;20431;-81
2022/12/09 17:41:03;;;;;;;0.50;0.20;;;3.20;1.00;;;;;;6077998;23;20412;-80
2022/12/09 17:43:32;;;;;;;0.50;0.10;;;;;;;;;;6074676;23;20907;-79
2022/12/09 17:46:02;;;;;;;0.60;0.47;;;3.10;1.00;;;;;;6077379;23;20472;-80
2022/12/09 17:48:33;;;;;;;0.50;0.10;;;3.10;1.00;;;;;;6081307;23;20432;-77
2022/12/09 17:51:05;;;;;;;0.50;0.10;;;3.10;1.00;;;;;;6082543;23;20423;-80